createdAt,value
2019-03-31T00:00:08.880Z,10.30
2019-03-31T00:02:34.897Z,10.20
2019-03-31T00:05:00.886Z,10.20
2019-03-31T00:07:26.886Z,10.30
2019-03-31T00:09:53.183Z,10.60
2019-03-31T00:12:19.384Z,10.60
2019-03-31T00:14:45.447Z,10.30
2019-03-31T00:17:11.471Z,10.20
2019-03-31T00:19:37.447Z,10.20
2019-03-31T00:22:03.442Z,10.00
2019-03-31T00:24:29.419Z,10.00
2019-03-31T00:26:55.422Z,10.00
2019-03-31T00:29:21.427Z,10.00
2019-03-31T00:31:47.408Z,10.00
2019-03-31T00:34:13.513Z,9.90
2019-03-31T00:36:39.531Z,9.80
2019-03-31T00:39:06.912Z,9.90
2019-03-31T00:41:32.921Z,9.70
2019-03-31T00:43:58.907Z,9.60
2019-03-31T00:46:24.902Z,9.50
2019-03-31T00:48:51.249Z,9.60
2019-03-31T00:51:17.219Z,9.60
2019-03-31T00:53:43.241Z,9.60
2019-03-31T00:56:09.238Z,9.60
2019-03-31T00:58:35.533Z,9.50
2019-03-31T01:01:03.420Z,9.40
2019-03-31T01:03:29.807Z,9.40
2019-03-31T01:05:55.914Z,9.30
2019-03-31T01:08:25.320Z,9.20
2019-03-31T01:10:51.532Z,9.20
2019-03-31T01:13:17.925Z,9.20
2019-03-31T01:15:44.052Z,9.20
2019-03-31T01:18:10.623Z,9.10
2019-03-31T01:20:36.908Z,9.00
2019-03-31T01:23:03.502Z,9.00
2019-03-31T01:25:29.504Z,8.90
2019-03-31T01:27:55.617Z,8.90
2019-03-31T01:30:22.215Z,8.90
2019-03-31T01:32:48.416Z,9.00
2019-03-31T01:35:15.419Z,8.90
2019-03-31T01:37:41.425Z,8.90
2019-03-31T01:40:07.643Z,8.90
2019-03-31T01:42:34.179Z,8.80
2019-03-31T01:45:00.448Z,8.80
2019-03-31T01:47:26.454Z,8.80
2019-03-31T01:49:52.440Z,8.80
2019-03-31T01:52:18.464Z,8.70
2019-03-31T01:54:44.455Z,8.80
2019-03-31T01:57:10.457Z,8.80
2019-03-31T01:59:36.459Z,8.70
2019-03-31T02:02:04.405Z,8.60
2019-03-31T02:04:30.679Z,8.60
2019-03-31T02:06:56.702Z,8.60
2019-03-31T02:09:22.693Z,8.60
2019-03-31T02:11:48.692Z,8.50
2019-03-31T02:14:14.980Z,8.50
2019-03-31T02:16:40.982Z,8.40
2019-03-31T02:19:06.992Z,8.50
2019-03-31T02:21:33.085Z,8.40
2019-03-31T02:23:59.082Z,8.40
2019-03-31T02:26:25.073Z,8.30
2019-03-31T02:28:51.094Z,8.30
2019-03-31T02:31:17.077Z,8.20
2019-03-31T02:33:43.101Z,8.10
2019-03-31T02:36:09.087Z,8.10
2019-03-31T02:38:35.078Z,8.20
2019-03-31T02:41:01.107Z,8.30
2019-03-31T02:43:27.385Z,8.30
2019-03-31T02:45:53.401Z,8.30
2019-03-31T02:48:19.393Z,8.30
2019-03-31T02:50:47.405Z,8.30
2019-03-31T02:53:15.030Z,8.10
2019-03-31T02:55:42.641Z,8.10
2019-03-31T02:58:09.235Z,8.00
2019-03-31T03:00:35.949Z,7.90
2019-03-31T03:03:02.465Z,7.90
2019-03-31T03:05:28.763Z,7.90
2019-03-31T03:07:55.869Z,8.00
2019-03-31T03:10:23.065Z,8.10
2019-03-31T03:12:50.897Z,8.10
2019-03-31T03:15:25.420Z,8.10
2019-03-31T03:17:51.423Z,8.00
2019-03-31T03:20:17.413Z,7.90
2019-03-31T03:22:43.413Z,7.80
2019-03-31T03:25:09.426Z,7.70
2019-03-31T03:27:35.408Z,7.70
2019-03-31T03:30:01.470Z,7.70
2019-03-31T03:32:27.523Z,7.80
2019-03-31T03:34:53.691Z,7.90
2019-03-31T03:37:19.837Z,7.90
2019-03-31T03:39:45.826Z,7.80
2019-03-31T03:42:11.844Z,7.70
2019-03-31T03:44:38.153Z,7.60
2019-03-31T03:47:04.160Z,7.60
2019-03-31T03:49:30.141Z,7.80
2019-03-31T03:51:56.458Z,7.70
2019-03-31T03:54:22.454Z,7.70
2019-03-31T03:56:48.448Z,7.60
2019-03-31T03:59:14.455Z,7.50
2019-03-31T04:01:40.732Z,7.50
2019-03-31T04:04:06.738Z,7.40
2019-03-31T04:06:32.982Z,7.40
2019-03-31T04:08:58.994Z,7.30
2019-03-31T04:11:26.603Z,7.40
2019-03-31T04:13:52.689Z,7.40
2019-03-31T04:16:18.692Z,7.40
2019-03-31T04:18:44.689Z,7.20
2019-03-31T04:21:11.073Z,7.10
2019-03-31T04:23:37.069Z,7.00
2019-03-31T04:26:03.268Z,7.00
2019-03-31T04:28:29.278Z,6.80
2019-03-31T04:30:55.500Z,6.90
2019-03-31T04:33:21.510Z,6.80
2019-03-31T04:35:47.516Z,6.90
2019-03-31T04:38:13.623Z,6.90
2019-03-31T04:40:39.626Z,6.90
2019-03-31T04:43:05.624Z,6.90
2019-03-31T04:45:31.616Z,7.00
2019-03-31T04:47:57.614Z,7.00
2019-03-31T04:50:23.621Z,7.00
2019-03-31T04:52:49.621Z,6.90
2019-03-31T04:55:15.636Z,6.80
2019-03-31T04:57:41.633Z,6.80
2019-03-31T05:00:08.178Z,6.80
2019-03-31T05:02:34.398Z,6.80
2019-03-31T05:05:00.472Z,6.80
2019-03-31T05:07:26.872Z,6.80
2019-03-31T05:09:52.888Z,6.80
2019-03-31T05:12:18.884Z,6.90
2019-03-31T05:14:44.881Z,6.90
2019-03-31T05:17:10.883Z,6.80
2019-03-31T05:19:37.194Z,6.80
2019-03-31T05:22:03.317Z,6.90
2019-03-31T05:24:29.308Z,6.80
2019-03-31T05:26:55.381Z,6.90
2019-03-31T05:29:21.418Z,7.00
2019-03-31T05:31:47.432Z,7.30
2019-03-31T05:34:19.241Z,7.50
2019-03-31T05:36:41.328Z,7.90
2019-03-31T05:39:07.314Z,8.80
2019-03-31T05:41:33.315Z,9.70
2019-03-31T05:44:05.477Z,10.60
2019-03-31T05:46:27.486Z,10.80
2019-03-31T05:48:53.483Z,11.10
2019-03-31T05:51:19.484Z,11.70
2019-03-31T05:53:45.480Z,12.40
2019-03-31T05:56:11.470Z,13.00
2019-03-31T05:58:37.478Z,13.40
2019-03-31T06:01:03.488Z,14.10
2019-03-31T06:03:29.478Z,14.20
2019-03-31T06:05:55.472Z,13.40
2019-03-31T06:08:21.597Z,14.50
2019-03-31T06:10:47.601Z,15.50
2019-03-31T06:13:13.615Z,15.90
2019-03-31T06:15:39.618Z,16.20
2019-03-31T06:18:05.629Z,16.00
2019-03-31T06:20:31.628Z,15.10
2019-03-31T06:22:57.688Z,15.20
2019-03-31T06:25:23.701Z,15.80
2019-03-31T06:27:49.700Z,15.10
2019-03-31T06:30:16.239Z,15.40
2019-03-31T06:32:42.536Z,16.30
2019-03-31T06:35:08.733Z,17.30
2019-03-31T06:37:34.741Z,18.70
2019-03-31T06:40:01.244Z,19.90
2019-03-31T06:42:27.239Z,20.60
2019-03-31T06:44:53.255Z,21.80
2019-03-31T06:47:19.235Z,22.30
2019-03-31T06:49:45.252Z,22.70
2019-03-31T06:52:11.248Z,23.20
2019-03-31T06:54:37.256Z,23.20
2019-03-31T06:57:03.255Z,23.60
2019-03-31T06:59:29.269Z,24.20
2019-03-31T07:01:55.551Z,24.40
2019-03-31T07:04:21.554Z,24.70
2019-03-31T07:06:47.548Z,25.10
2019-03-31T07:09:13.567Z,25.40
2019-03-31T07:11:39.852Z,26.50
2019-03-31T07:14:05.844Z,26.60
2019-03-31T07:16:31.840Z,26.40
2019-03-31T07:18:58.128Z,26.60
2019-03-31T07:21:24.113Z,26.90
2019-03-31T07:23:50.303Z,27.20
2019-03-31T07:26:16.296Z,26.60
2019-03-31T07:28:42.290Z,27.00
2019-03-31T07:31:08.308Z,27.90
2019-03-31T07:33:34.296Z,28.20
2019-03-31T07:36:00.701Z,28.00
2019-03-31T07:38:38.353Z,28.60
2019-03-31T07:40:55.220Z,29.00
2019-03-31T07:43:21.748Z,29.00
2019-03-31T07:45:47.759Z,28.60
2019-03-31T07:48:13.768Z,28.90
2019-03-31T07:50:39.783Z,29.10
2019-03-31T07:53:05.788Z,29.00
2019-03-31T07:55:31.796Z,29.50
2019-03-31T07:57:57.787Z,30.10
2019-03-31T08:00:24.028Z,30.00
2019-03-31T08:02:50.044Z,29.80
2019-03-31T08:05:16.964Z,29.80
2019-03-31T08:07:42.951Z,29.50
2019-03-31T08:10:10.057Z,29.70
2019-03-31T08:12:36.403Z,29.30
2019-03-31T08:15:06.857Z,29.90
2019-03-31T08:17:32.875Z,29.90
2019-03-31T08:19:58.904Z,30.30
2019-03-31T08:22:24.892Z,29.80
2019-03-31T08:24:50.884Z,30.30
2019-03-31T08:27:16.915Z,30.60
2019-03-31T08:29:42.914Z,30.30
2019-03-31T08:32:09.619Z,30.30
2019-03-31T08:34:35.616Z,30.00
2019-03-31T08:37:01.855Z,30.00
2019-03-31T08:39:27.871Z,30.10
2019-03-31T08:41:53.975Z,29.80
2019-03-31T08:44:19.979Z,29.60
2019-03-31T08:46:45.981Z,29.30
2019-03-31T08:49:11.984Z,29.10
2019-03-31T08:51:38.054Z,28.80
2019-03-31T08:54:04.047Z,28.60
2019-03-31T08:56:30.263Z,28.60
2019-03-31T08:58:56.586Z,28.00
2019-03-31T09:01:22.609Z,27.00
2019-03-31T09:03:48.596Z,26.50
2019-03-31T09:06:14.595Z,25.20
2019-03-31T09:08:40.600Z,24.20
2019-03-31T09:11:06.605Z,23.20
2019-03-31T09:13:32.600Z,22.50
2019-03-31T09:15:58.600Z,21.80
2019-03-31T09:18:24.595Z,21.30
2019-03-31T09:20:50.628Z,20.80
2019-03-31T09:23:16.614Z,20.60
2019-03-31T09:25:42.601Z,20.50
2019-03-31T09:28:08.607Z,20.40
2019-03-31T09:30:34.615Z,20.30
2019-03-31T09:33:00.648Z,20.20
2019-03-31T09:35:26.956Z,20.10
2019-03-31T09:37:52.946Z,20.10
2019-03-31T09:40:19.155Z,20.00
2019-03-31T09:42:45.174Z,20.00
2019-03-31T09:45:11.659Z,20.00
2019-03-31T09:47:37.854Z,20.00
2019-03-31T09:50:06.860Z,20.10
2019-03-31T09:52:32.860Z,20.20
2019-03-31T09:54:58.870Z,20.10
2019-03-31T09:57:24.899Z,19.90
2019-03-31T09:59:50.894Z,20.10
2019-03-31T10:02:16.906Z,20.10
2019-03-31T10:04:42.905Z,20.10
2019-03-31T10:07:09.104Z,20.10
2019-03-31T10:09:35.592Z,20.10
2019-03-31T10:12:01.595Z,20.00
2019-03-31T10:14:27.838Z,20.00
2019-03-31T10:16:53.856Z,20.00
2019-03-31T10:19:19.850Z,20.20
2019-03-31T10:21:45.907Z,19.80
2019-03-31T10:24:11.990Z,19.70
2019-03-31T10:26:37.995Z,20.10
2019-03-31T10:29:04.029Z,20.40
2019-03-31T10:31:30.062Z,20.60
2019-03-31T10:33:56.055Z,20.90
2019-03-31T10:36:22.094Z,21.20
2019-03-31T10:38:48.326Z,21.60
2019-03-31T10:41:14.628Z,21.80
2019-03-31T10:43:40.614Z,21.70
2019-03-31T10:46:06.620Z,21.30
2019-03-31T10:48:32.611Z,21.50
2019-03-31T10:50:58.621Z,21.80
2019-03-31T10:53:24.783Z,22.00
2019-03-31T10:55:50.749Z,21.90
2019-03-31T10:58:16.739Z,21.90
2019-03-31T11:00:44.692Z,22.20
2019-03-31T11:03:10.926Z,22.40
2019-03-31T11:05:37.064Z,21.80
2019-03-31T11:08:03.461Z,21.90
2019-03-31T11:10:29.447Z,21.90
2019-03-31T11:12:55.970Z,21.00
2019-03-31T11:15:21.958Z,21.20
2019-03-31T11:17:47.956Z,21.50
2019-03-31T11:20:13.951Z,21.60
2019-03-31T11:22:56.987Z,20.80
2019-03-31T11:25:26.311Z,20.60
2019-03-31T11:27:50.973Z,20.40
2019-03-31T11:30:17.161Z,20.10
2019-03-31T11:32:43.195Z,19.90
2019-03-31T11:35:09.595Z,20.00
2019-03-31T11:37:35.600Z,20.10
2019-03-31T11:40:03.704Z,20.20
2019-03-31T11:42:29.707Z,19.90
2019-03-31T11:44:55.707Z,19.60
2019-03-31T11:47:22.502Z,19.10
2019-03-31T11:49:48.517Z,19.30
2019-03-31T11:52:14.493Z,19.40
2019-03-31T11:54:40.535Z,19.50
2019-03-31T11:57:06.531Z,19.50
2019-03-31T11:59:32.519Z,19.80
2019-03-31T12:01:58.538Z,20.00
2019-03-31T12:04:24.755Z,20.20
2019-03-31T12:06:50.763Z,20.00
2019-03-31T12:09:16.807Z,20.10
2019-03-31T12:11:45.480Z,20.40
2019-03-31T12:14:10.692Z,20.30
2019-03-31T12:16:36.716Z,20.30
2019-03-31T12:19:02.723Z,20.20
2019-03-31T12:21:28.829Z,20.10
2019-03-31T12:23:56.753Z,19.70
2019-03-31T12:26:22.744Z,19.20
2019-03-31T12:28:49.526Z,18.90
2019-03-31T12:31:15.542Z,19.20
2019-03-31T12:33:41.540Z,19.10
2019-03-31T12:36:07.945Z,19.00
2019-03-31T12:38:33.947Z,19.10
2019-03-31T12:40:59.936Z,19.10
2019-03-31T12:43:26.771Z,19.30
2019-03-31T12:45:53.102Z,19.40
2019-03-31T12:48:19.092Z,19.60
2019-03-31T12:50:45.119Z,19.60
2019-03-31T12:53:11.111Z,19.70
2019-03-31T12:55:37.107Z,19.80
2019-03-31T12:58:03.308Z,19.90
2019-03-31T13:00:29.568Z,20.30
2019-03-31T13:02:55.696Z,19.90
2019-03-31T13:05:21.686Z,20.00
2019-03-31T13:07:56.356Z,19.80
2019-03-31T13:10:15.883Z,19.60
2019-03-31T13:12:41.900Z,19.50
2019-03-31T13:15:08.207Z,19.30
2019-03-31T13:17:34.487Z,19.20
2019-03-31T13:20:00.832Z,19.20
2019-03-31T13:22:26.891Z,19.20
2019-03-31T13:24:52.883Z,19.20
2019-03-31T13:27:18.893Z,19.50
2019-03-31T13:29:44.910Z,19.90
2019-03-31T13:32:10.900Z,20.20
2019-03-31T13:34:36.920Z,20.30
2019-03-31T13:37:02.945Z,20.50
2019-03-31T13:39:28.954Z,20.10
2019-03-31T13:41:54.943Z,20.20
2019-03-31T13:44:20.954Z,20.20
2019-03-31T13:46:47.185Z,19.90
2019-03-31T13:49:13.195Z,19.80
2019-03-31T13:51:39.186Z,19.90
2019-03-31T13:54:05.192Z,20.00
2019-03-31T13:56:31.909Z,19.80
2019-03-31T13:58:58.420Z,19.60
2019-03-31T14:01:25.259Z,19.70
2019-03-31T14:03:51.635Z,19.80
2019-03-31T14:06:17.641Z,19.90
2019-03-31T14:08:43.638Z,19.70
2019-03-31T14:11:09.967Z,19.60
2019-03-31T14:13:35.994Z,19.60
2019-03-31T14:16:02.028Z,19.50
2019-03-31T14:18:28.039Z,19.40
2019-03-31T14:20:54.052Z,19.30
2019-03-31T14:23:20.341Z,19.30
2019-03-31T14:25:46.336Z,19.40
2019-03-31T14:28:12.357Z,18.80
2019-03-31T14:30:38.392Z,17.50
2019-03-31T14:33:04.406Z,14.80
2019-03-31T14:35:30.410Z,13.60
2019-03-31T14:37:56.451Z,12.90
2019-03-31T14:40:22.789Z,12.50
2019-03-31T14:42:48.980Z,12.40
2019-03-31T14:45:29.044Z,12.60
2019-03-31T14:47:55.031Z,12.80
2019-03-31T14:50:32.932Z,12.60
2019-03-31T14:52:59.316Z,12.80
2019-03-31T14:55:25.322Z,12.30
2019-03-31T14:57:51.325Z,12.60
2019-03-31T15:00:17.514Z,12.60
2019-03-31T15:02:43.513Z,12.40
2019-03-31T15:05:09.516Z,12.40
2019-03-31T15:07:35.552Z,12.40
2019-03-31T15:10:03.247Z,12.50
2019-03-31T15:12:29.240Z,12.40
2019-03-31T15:14:55.496Z,12.50
2019-03-31T15:17:21.500Z,12.50
2019-03-31T15:19:47.592Z,12.70
2019-03-31T15:22:13.596Z,12.70
2019-03-31T15:24:39.580Z,12.70
2019-03-31T15:27:05.597Z,12.80
2019-03-31T15:29:31.580Z,12.90
2019-03-31T15:31:57.605Z,13.10
2019-03-31T15:34:23.596Z,13.00
2019-03-31T15:36:49.678Z,13.00
2019-03-31T15:39:15.699Z,13.00
2019-03-31T15:41:41.707Z,12.90
2019-03-31T15:44:07.731Z,13.10
2019-03-31T15:46:33.748Z,13.10
2019-03-31T15:48:59.776Z,13.20
2019-03-31T15:51:25.759Z,13.20
2019-03-31T15:53:52.088Z,13.20
2019-03-31T15:56:18.319Z,13.30
2019-03-31T15:58:44.339Z,13.30
2019-03-31T16:01:10.383Z,13.30
2019-03-31T16:03:38.972Z,13.30
2019-03-31T16:06:04.965Z,13.30
2019-03-31T16:08:30.988Z,13.40
2019-03-31T16:10:56.985Z,13.50
2019-03-31T16:13:23.062Z,13.40
2019-03-31T16:15:49.125Z,13.50
2019-03-31T16:18:15.248Z,13.70
2019-03-31T16:20:41.239Z,13.80
2019-03-31T16:23:07.516Z,13.60
2019-03-31T16:25:35.874Z,13.60
2019-03-31T16:28:01.892Z,13.80
2019-03-31T16:30:28.298Z,14.00
2019-03-31T16:32:54.360Z,13.80
2019-03-31T16:35:20.415Z,13.80
2019-03-31T16:37:46.813Z,13.60
2019-03-31T16:40:12.995Z,13.60
2019-03-31T16:42:39.038Z,13.50
2019-03-31T16:45:05.743Z,13.50
2019-03-31T16:47:31.766Z,13.40
2019-03-31T16:49:58.134Z,13.40
2019-03-31T16:52:24.135Z,13.30
2019-03-31T16:54:50.229Z,13.30
2019-03-31T16:57:16.250Z,13.20
2019-03-31T16:59:42.479Z,13.20
2019-03-31T17:02:08.524Z,13.10
2019-03-31T17:04:34.523Z,13.10
2019-03-31T17:07:00.904Z,13.10
2019-03-31T17:09:26.925Z,13.00
2019-03-31T17:11:53.169Z,13.00
2019-03-31T17:14:19.185Z,12.90
2019-03-31T17:16:45.201Z,12.80
2019-03-31T17:19:11.220Z,12.80
2019-03-31T17:21:37.192Z,12.80
2019-03-31T17:24:03.191Z,12.70
2019-03-31T17:26:29.197Z,12.60
2019-03-31T17:28:55.209Z,12.60
2019-03-31T17:31:21.237Z,12.50
2019-03-31T17:33:47.481Z,12.40
2019-03-31T17:36:13.809Z,12.40
2019-03-31T17:38:39.840Z,12.30
2019-03-31T17:41:05.845Z,12.30
2019-03-31T17:43:31.857Z,12.40
2019-03-31T17:45:57.848Z,12.30
2019-03-31T17:48:23.906Z,12.30
2019-03-31T17:50:49.994Z,12.30
2019-03-31T17:53:15.990Z,12.10
2019-03-31T17:55:42.008Z,12.10
2019-03-31T17:58:08.008Z,12.10
2019-03-31T18:00:34.011Z,12.10
2019-03-31T18:03:00.027Z,12.00
2019-03-31T18:05:26.040Z,12.10
2019-03-31T18:07:52.037Z,12.10
2019-03-31T18:10:21.203Z,11.90
2019-03-31T18:12:45.938Z,12.00
2019-03-31T18:15:12.371Z,12.10
2019-03-31T18:17:38.677Z,12.00
2019-03-31T18:20:05.281Z,12.00
2019-03-31T18:22:31.273Z,12.00
2019-03-31T18:24:57.887Z,11.90
2019-03-31T18:27:23.906Z,11.90
2019-03-31T18:29:49.916Z,11.90
2019-03-31T18:32:15.958Z,11.80
2019-03-31T18:34:42.024Z,11.70
2019-03-31T18:37:08.034Z,11.60
2019-03-31T18:39:34.024Z,11.70
2019-03-31T18:42:00.034Z,11.60
2019-03-31T18:44:26.279Z,11.70
2019-03-31T18:46:52.293Z,11.60
2019-03-31T18:49:18.299Z,11.40
2019-03-31T18:51:44.416Z,11.40
2019-03-31T18:54:12.353Z,11.50
2019-03-31T18:56:46.256Z,11.20
2019-03-31T18:59:25.967Z,11.20
2019-03-31T19:02:02.976Z,11.20
2019-03-31T19:04:30.872Z,11.20
2019-03-31T19:07:15.241Z,11.10
2019-03-31T19:09:45.979Z,11.10
2019-03-31T19:12:16.447Z,11.00
2019-03-31T19:14:53.300Z,11.10
2019-03-31T19:17:21.200Z,11.00
2019-03-31T19:19:49.108Z,11.00
2019-03-31T19:22:19.597Z,10.90
2019-03-31T19:24:47.528Z,10.80
2019-03-31T19:27:18.562Z,10.70
2019-03-31T19:29:55.800Z,10.70
2019-03-31T19:32:27.095Z,10.60
2019-03-31T19:34:58.245Z,10.60
2019-03-31T19:37:29.037Z,10.70
2019-03-31T19:40:13.545Z,10.50
2019-03-31T19:42:58.117Z,10.50
2019-03-31T19:45:32.081Z,10.50
2019-03-31T19:47:59.979Z,10.50
2019-03-31T19:50:33.687Z,10.50
2019-03-31T19:53:04.647Z,10.50
2019-03-31T19:55:32.567Z,10.40
2019-03-31T19:58:03.246Z,10.40
2019-03-31T20:00:46.320Z,10.20
2019-03-31T20:03:14.209Z,10.40
2019-03-31T20:05:42.107Z,10.40
2019-03-31T20:08:12.982Z,10.20
2019-03-31T20:10:40.892Z,10.20
2019-03-31T20:13:08.878Z,10.30
2019-03-31T20:15:53.735Z,10.10
2019-03-31T20:18:27.652Z,10.20
2019-03-31T20:20:55.565Z,10.10
2019-03-31T20:23:29.325Z,10.10
2019-03-31T20:25:57.249Z,10.00
2019-03-31T20:28:28.088Z,9.80
2019-03-31T20:31:12.816Z,9.70
2019-03-31T20:33:56.149Z,9.70
2019-03-31T20:36:24.316Z,9.80
2019-03-31T20:39:06.907Z,9.70
2019-03-31T20:41:52.796Z,9.70
2019-03-31T20:44:18.791Z,9.60
2019-03-31T20:46:44.811Z,9.40
2019-03-31T20:49:10.806Z,9.30
2019-03-31T20:51:36.802Z,9.30
2019-03-31T20:54:03.361Z,9.30
2019-03-31T20:56:29.373Z,9.20
2019-03-31T20:58:55.384Z,9.30
2019-03-31T21:01:21.368Z,9.20
2019-03-31T21:03:47.379Z,9.10
2019-03-31T21:06:13.373Z,9.00
2019-03-31T21:08:39.376Z,9.00
2019-03-31T21:11:05.630Z,9.00
2019-03-31T21:13:31.651Z,8.90
2019-03-31T21:15:57.649Z,8.80
2019-03-31T21:18:24.010Z,8.80
2019-03-31T21:20:50.005Z,8.90
2019-03-31T21:23:16.015Z,8.80
2019-03-31T21:25:42.108Z,8.80
2019-03-31T21:28:08.115Z,9.00
2019-03-31T21:30:35.668Z,8.90
2019-03-31T21:33:01.696Z,8.90
2019-03-31T21:35:27.690Z,9.00
2019-03-31T21:37:53.678Z,8.90
2019-03-31T21:40:20.512Z,8.90
2019-03-31T21:42:46.505Z,8.80
2019-03-31T21:45:12.702Z,8.80
2019-03-31T21:47:38.712Z,8.80
2019-03-31T21:50:05.303Z,8.60
2019-03-31T21:52:31.564Z,8.60
2019-03-31T21:54:57.856Z,8.70
2019-03-31T21:57:23.848Z,8.80
2019-03-31T21:59:50.033Z,8.70
2019-03-31T22:02:16.338Z,8.70
2019-03-31T22:04:42.438Z,8.70
2019-03-31T22:07:08.540Z,8.60
2019-03-31T22:09:34.529Z,8.60
2019-03-31T22:12:00.517Z,8.60
2019-03-31T22:14:26.544Z,8.50
2019-03-31T22:16:52.537Z,8.50
2019-03-31T22:19:18.535Z,8.50
2019-03-31T22:21:44.585Z,8.50
2019-03-31T22:24:10.679Z,8.30
2019-03-31T22:26:36.664Z,8.30
2019-03-31T22:29:02.859Z,8.40
2019-03-31T22:31:29.151Z,8.30
2019-03-31T22:33:55.204Z,8.30
2019-03-31T22:36:21.519Z,8.40
2019-03-31T22:38:49.007Z,8.50
2019-03-31T22:41:15.008Z,8.40
2019-03-31T22:43:41.012Z,8.30
2019-03-31T22:46:07.324Z,8.30
2019-03-31T22:48:33.347Z,8.20
2019-03-31T22:50:59.351Z,8.40
2019-03-31T22:53:25.328Z,8.40
2019-03-31T22:55:51.340Z,8.40
2019-03-31T22:58:17.329Z,8.40
2019-03-31T23:00:43.723Z,8.40
2019-03-31T23:03:09.740Z,8.20
2019-03-31T23:05:35.712Z,8.00
2019-03-31T23:08:01.716Z,7.90
2019-03-31T23:10:27.719Z,7.90
2019-03-31T23:12:53.720Z,8.00
2019-03-31T23:15:19.716Z,8.20
2019-03-31T23:17:45.730Z,8.20
2019-03-31T23:20:11.730Z,8.30
2019-03-31T23:22:37.718Z,8.30
2019-03-31T23:25:04.990Z,8.30
2019-03-31T23:27:31.048Z,8.20
2019-03-31T23:29:57.211Z,8.00
2019-03-31T23:32:23.208Z,7.90
2019-03-31T23:34:49.300Z,7.90
2019-03-31T23:37:15.308Z,7.90
2019-03-31T23:39:41.548Z,7.80
2019-03-31T23:42:07.548Z,7.70
2019-03-31T23:44:33.553Z,7.80
2019-03-31T23:46:59.824Z,7.80
2019-03-31T23:49:25.824Z,7.80
2019-03-31T23:51:51.836Z,7.80
2019-03-31T23:54:17.829Z,7.60
2019-03-31T23:56:43.815Z,7.50
2019-03-31T23:59:10.049Z,7.50
